sensor_id;sensor_type;location;lat;lon;timestamp;temperature;humidity
18153;DHT22;9202;51.578;7.734;2023-06-14T00:01:19;17.20;96.50
18153;DHT22;9202;51.578;7.734;2023-06-14T00:03:24;17.10;96.40
18153;DHT22;9202;51.578;7.734;2023-06-14T00:05:28;17.10;96.30
18153;DHT22;9202;51.578;7.734;2023-06-14T00:07:34;17.20;96.10
18153;DHT22;9202;51.578;7.734;2023-06-14T00:09:37;17.10;96.20
18153;DHT22;9202;51.578;7.734;2023-06-14T00:11:40;17.20;96.10
18153;DHT22;9202;51.578;7.734;2023-06-14T00:13:43;17.10;96.00
18153;DHT22;9202;51.578;7.734;2023-06-14T00:15:46;17.20;96.00
18153;DHT22;9202;51.578;7.734;2023-06-14T00:17:49;17.20;96.10
18153;DHT22;9202;51.578;7.734;2023-06-14T00:19:53;17.20;96.50
18153;DHT22;9202;51.578;7.734;2023-06-14T00:21:56;17.20;96.70
18153;DHT22;9202;51.578;7.734;2023-06-14T00:23:58;17.20;97.30
18153;DHT22;9202;51.578;7.734;2023-06-14T00:26:01;17.10;96.70
18153;DHT22;9202;51.578;7.734;2023-06-14T00:28:04;17.20;96.80
18153;DHT22;9202;51.578;7.734;2023-06-14T00:30:08;17.10;97.10
18153;DHT22;9202;51.578;7.734;2023-06-14T00:32:11;17.10;97.40
18153;DHT22;9202;51.578;7.734;2023-06-14T00:34:13;17.10;97.70
18153;DHT22;9202;51.578;7.734;2023-06-14T00:36:16;17.10;98.00
18153;DHT22;9202;51.578;7.734;2023-06-14T00:38:19;17.20;98.30
18153;DHT22;9202;51.578;7.734;2023-06-14T00:40:21;17.20;98.10
18153;DHT22;9202;51.578;7.734;2023-06-14T00:42:24;17.20;98.50
18153;DHT22;9202;51.578;7.734;2023-06-14T00:44:27;17.20;98.50
18153;DHT22;9202;51.578;7.734;2023-06-14T00:46:30;17.10;97.90
18153;DHT22;9202;51.578;7.734;2023-06-14T00:48:33;17.00;98.30
18153;DHT22;9202;51.578;7.734;2023-06-14T00:50:36;16.70;97.90
18153;DHT22;9202;51.578;7.734;2023-06-14T00:52:40;16.50;98.20
18153;DHT22;9202;51.578;7.734;2023-06-14T00:54:43;16.40;98.50
18153;DHT22;9202;51.578;7.734;2023-06-14T00:56:46;16.40;98.80
18153;DHT22;9202;51.578;7.734;2023-06-14T00:58:49;16.30;98.70
18153;DHT22;9202;51.578;7.734;2023-06-14T01:00:53;16.30;98.10
18153;DHT22;9202;51.578;7.734;2023-06-14T01:02:56;16.40;99.70
18153;DHT22;9202;51.578;7.734;2023-06-14T01:05:00;16.40;98.10
18153;DHT22;9202;51.578;7.734;2023-06-14T01:07:12;16.40;98.90
18153;DHT22;9202;51.578;7.734;2023-06-14T01:09:14;16.30;97.90
18153;DHT22;9202;51.578;7.734;2023-06-14T01:11:21;16.00;98.10
18153;DHT22;9202;51.578;7.734;2023-06-14T01:13:27;15.90;98.30
18153;DHT22;9202;51.578;7.734;2023-06-14T01:15:30;15.90;98.40
18153;DHT22;9202;51.578;7.734;2023-06-14T01:17:33;15.80;98.30
18153;DHT22;9202;51.578;7.734;2023-06-14T01:19:36;15.80;98.30
18153;DHT22;9202;51.578;7.734;2023-06-14T01:21:40;15.80;98.20
18153;DHT22;9202;51.578;7.734;2023-06-14T01:23:43;15.70;98.20
18153;DHT22;9202;51.578;7.734;2023-06-14T01:25:46;15.70;98.30
18153;DHT22;9202;51.578;7.734;2023-06-14T01:27:52;15.60;98.10
18153;DHT22;9202;51.578;7.734;2023-06-14T01:29:55;15.60;98.20
18153;DHT22;9202;51.578;7.734;2023-06-14T01:31:59;15.60;98.10
18153;DHT22;9202;51.578;7.734;2023-06-14T01:34:04;15.70;98.20
18153;DHT22;9202;51.578;7.734;2023-06-14T01:36:06;15.60;98.10
18153;DHT22;9202;51.578;7.734;2023-06-14T01:38:11;15.60;98.30
18153;DHT22;9202;51.578;7.734;2023-06-14T01:40:15;15.60;98.00
18153;DHT22;9202;51.578;7.734;2023-06-14T01:42:19;15.50;98.00
18153;DHT22;9202;51.578;7.734;2023-06-14T01:44:22;15.60;98.00
18153;DHT22;9202;51.578;7.734;2023-06-14T01:46:25;15.50;98.10
18153;DHT22;9202;51.578;7.734;2023-06-14T01:48:29;15.50;98.10
18153;DHT22;9202;51.578;7.734;2023-06-14T01:50:32;15.50;98.40
18153;DHT22;9202;51.578;7.734;2023-06-14T01:52:34;15.40;98.10
18153;DHT22;9202;51.578;7.734;2023-06-14T01:54:38;15.40;98.10
18153;DHT22;9202;51.578;7.734;2023-06-14T01:56:43;15.40;98.10
18153;DHT22;9202;51.578;7.734;2023-06-14T01:58:45;15.40;98.10
18153;DHT22;9202;51.578;7.734;2023-06-14T02:00:48;15.40;98.20
18153;DHT22;9202;51.578;7.734;2023-06-14T02:02:51;15.40;98.30
18153;DHT22;9202;51.578;7.734;2023-06-14T02:04:54;15.30;98.50
18153;DHT22;9202;51.578;7.734;2023-06-14T02:06:59;15.20;98.70
18153;DHT22;9202;51.578;7.734;2023-06-14T02:09:01;15.20;98.70
18153;DHT22;9202;51.578;7.734;2023-06-14T02:11:05;15.20;98.60
18153;DHT22;9202;51.578;7.734;2023-06-14T02:13:08;15.10;98.60
18153;DHT22;9202;51.578;7.734;2023-06-14T02:15:10;15.20;98.60
18153;DHT22;9202;51.578;7.734;2023-06-14T02:17:15;15.10;98.60
18153;DHT22;9202;51.578;7.734;2023-06-14T02:19:18;15.10;98.70
18153;DHT22;9202;51.578;7.734;2023-06-14T02:21:21;15.00;98.90
18153;DHT22;9202;51.578;7.734;2023-06-14T02:23:24;15.00;99.00
18153;DHT22;9202;51.578;7.734;2023-06-14T02:25:27;15.00;98.90
18153;DHT22;9202;51.578;7.734;2023-06-14T02:27:30;15.00;98.90
18153;DHT22;9202;51.578;7.734;2023-06-14T02:29:33;15.00;98.90
18153;DHT22;9202;51.578;7.734;2023-06-14T02:31:37;15.00;99.00
18153;DHT22;9202;51.578;7.734;2023-06-14T02:33:40;15.00;98.90
18153;DHT22;9202;51.578;7.734;2023-06-14T02:35:43;15.20;99.90
18153;DHT22;9202;51.578;7.734;2023-06-14T02:37:45;15.10;99.70
18153;DHT22;9202;51.578;7.734;2023-06-14T02:39:49;15.20;99.80
18153;DHT22;9202;51.578;7.734;2023-06-14T02:41:51;15.20;99.70
18153;DHT22;9202;51.578;7.734;2023-06-14T02:43:55;15.20;99.40
18153;DHT22;9202;51.578;7.734;2023-06-14T02:45:58;15.00;99.00
18153;DHT22;9202;51.578;7.734;2023-06-14T02:48:01;15.00;99.20
18153;DHT22;9202;51.578;7.734;2023-06-14T02:50:04;15.00;99.10
18153;DHT22;9202;51.578;7.734;2023-06-14T02:52:07;14.90;98.90
18153;DHT22;9202;51.578;7.734;2023-06-14T02:54:11;14.90;99.00
18153;DHT22;9202;51.578;7.734;2023-06-14T02:56:13;14.90;99.40
18153;DHT22;9202;51.578;7.734;2023-06-14T02:58:18;15.00;99.60
18153;DHT22;9202;51.578;7.734;2023-06-14T03:00:21;14.90;99.40
18153;DHT22;9202;51.578;7.734;2023-06-14T03:02:25;14.90;99.60
18153;DHT22;9202;51.578;7.734;2023-06-14T03:04:28;14.90;99.80
18153;DHT22;9202;51.578;7.734;2023-06-14T03:06:31;14.80;99.90
18153;DHT22;9202;51.578;7.734;2023-06-14T03:08:34;14.80;99.90
18153;DHT22;9202;51.578;7.734;2023-06-14T03:10:40;14.70;99.90
18153;DHT22;9202;51.578;7.734;2023-06-14T03:12:43;14.60;99.90
18153;DHT22;9202;51.578;7.734;2023-06-14T03:14:46;14.50;99.90
18153;DHT22;9202;51.578;7.734;2023-06-14T03:16:49;14.50;99.90
18153;DHT22;9202;51.578;7.734;2023-06-14T03:18:54;14.40;99.90
18153;DHT22;9202;51.578;7.734;2023-06-14T03:20:58;14.40;99.90
18153;DHT22;9202;51.578;7.734;2023-06-14T03:23:02;14.40;99.90
18153;DHT22;9202;51.578;7.734;2023-06-14T03:25:07;14.40;99.90
18153;DHT22;9202;51.578;7.734;2023-06-14T03:27:12;14.40;99.90
18153;DHT22;9202;51.578;7.734;2023-06-14T03:29:17;14.40;99.90
18153;DHT22;9202;51.578;7.734;2023-06-14T03:31:21;14.50;99.90
18153;DHT22;9202;51.578;7.734;2023-06-14T03:33:24;14.50;99.90
18153;DHT22;9202;51.578;7.734;2023-06-14T03:35:27;14.60;99.90
18153;DHT22;9202;51.578;7.734;2023-06-14T03:37:30;14.60;99.90
18153;DHT22;9202;51.578;7.734;2023-06-14T03:39:33;14.60;99.90
18153;DHT22;9202;51.578;7.734;2023-06-14T03:41:36;14.50;99.90
18153;DHT22;9202;51.578;7.734;2023-06-14T03:43:38;14.60;99.90
18153;DHT22;9202;51.578;7.734;2023-06-14T03:45:41;14.60;99.90
18153;DHT22;9202;51.578;7.734;2023-06-14T03:47:44;14.70;99.90
18153;DHT22;9202;51.578;7.734;2023-06-14T03:49:47;14.70;99.90
18153;DHT22;9202;51.578;7.734;2023-06-14T03:51:49;14.60;99.90
18153;DHT22;9202;51.578;7.734;2023-06-14T03:53:54;14.60;99.90
18153;DHT22;9202;51.578;7.734;2023-06-14T03:55:59;14.50;99.90
18153;DHT22;9202;51.578;7.734;2023-06-14T03:58:04;14.60;99.90
18153;DHT22;9202;51.578;7.734;2023-06-14T04:00:08;14.50;99.90
18153;DHT22;9202;51.578;7.734;2023-06-14T04:02:13;14.60;99.90
18153;DHT22;9202;51.578;7.734;2023-06-14T04:04:18;14.60;99.90
18153;DHT22;9202;51.578;7.734;2023-06-14T04:06:21;14.50;99.90
18153;DHT22;9202;51.578;7.734;2023-06-14T04:08:24;14.50;99.90
18153;DHT22;9202;51.578;7.734;2023-06-14T04:10:26;14.50;99.90
18153;DHT22;9202;51.578;7.734;2023-06-14T04:12:30;14.40;99.90
18153;DHT22;9202;51.578;7.734;2023-06-14T04:14:34;14.50;99.90
18153;DHT22;9202;51.578;7.734;2023-06-14T04:16:37;14.50;99.90
18153;DHT22;9202;51.578;7.734;2023-06-14T04:18:40;14.50;99.90
18153;DHT22;9202;51.578;7.734;2023-06-14T04:20:43;14.60;99.90
18153;DHT22;9202;51.578;7.734;2023-06-14T04:22:46;14.60;99.90
18153;DHT22;9202;51.578;7.734;2023-06-14T04:24:49;14.60;99.90
18153;DHT22;9202;51.578;7.734;2023-06-14T04:26:56;14.60;99.90
18153;DHT22;9202;51.578;7.734;2023-06-14T04:29:00;14.70;99.90
18153;DHT22;9202;51.578;7.734;2023-06-14T04:31:05;14.70;99.90
18153;DHT22;9202;51.578;7.734;2023-06-14T04:33:10;14.70;99.90
18153;DHT22;9202;51.578;7.734;2023-06-14T04:35:13;14.70;99.90
18153;DHT22;9202;51.578;7.734;2023-06-14T04:37:18;14.80;99.90
18153;DHT22;9202;51.578;7.734;2023-06-14T04:39:22;14.80;99.90
18153;DHT22;9202;51.578;7.734;2023-06-14T04:41:26;14.90;99.90
18153;DHT22;9202;51.578;7.734;2023-06-14T04:43:31;15.00;99.90
18153;DHT22;9202;51.578;7.734;2023-06-14T04:45:36;15.00;99.90
18153;DHT22;9202;51.578;7.734;2023-06-14T04:47:40;15.00;99.90
18153;DHT22;9202;51.578;7.734;2023-06-14T04:49:44;15.00;99.90
18153;DHT22;9202;51.578;7.734;2023-06-14T04:51:47;15.00;99.90
18153;DHT22;9202;51.578;7.734;2023-06-14T04:53:52;15.00;99.90
18153;DHT22;9202;51.578;7.734;2023-06-14T04:55:57;15.10;99.90
18153;DHT22;9202;51.578;7.734;2023-06-14T04:58:00;15.00;99.90
18153;DHT22;9202;51.578;7.734;2023-06-14T05:00:05;15.10;99.90
18153;DHT22;9202;51.578;7.734;2023-06-14T05:02:08;15.10;99.90
18153;DHT22;9202;51.578;7.734;2023-06-14T05:04:11;15.20;99.90
18153;DHT22;9202;51.578;7.734;2023-06-14T05:06:14;15.30;99.90
18153;DHT22;9202;51.578;7.734;2023-06-14T05:08:17;15.30;99.90
18153;DHT22;9202;51.578;7.734;2023-06-14T05:10:21;15.40;99.90
18153;DHT22;9202;51.578;7.734;2023-06-14T05:12:23;15.40;99.90
18153;DHT22;9202;51.578;7.734;2023-06-14T05:14:26;15.40;99.90
18153;DHT22;9202;51.578;7.734;2023-06-14T05:16:30;15.50;99.90
18153;DHT22;9202;51.578;7.734;2023-06-14T05:18:33;15.50;99.90
18153;DHT22;9202;51.578;7.734;2023-06-14T05:20:37;15.50;99.90
18153;DHT22;9202;51.578;7.734;2023-06-14T05:22:40;15.60;99.90
18153;DHT22;9202;51.578;7.734;2023-06-14T05:24:42;15.60;99.90
18153;DHT22;9202;51.578;7.734;2023-06-14T05:26:45;15.70;99.90
18153;DHT22;9202;51.578;7.734;2023-06-14T05:28:47;15.70;99.90
18153;DHT22;9202;51.578;7.734;2023-06-14T05:30:50;15.80;99.90
18153;DHT22;9202;51.578;7.734;2023-06-14T05:32:53;15.80;99.90
18153;DHT22;9202;51.578;7.734;2023-06-14T05:34:57;15.90;99.90
18153;DHT22;9202;51.578;7.734;2023-06-14T05:37:00;16.00;99.90
18153;DHT22;9202;51.578;7.734;2023-06-14T05:39:04;16.10;99.90
18153;DHT22;9202;51.578;7.734;2023-06-14T05:41:07;16.10;99.90
18153;DHT22;9202;51.578;7.734;2023-06-14T05:43:10;16.20;99.90
18153;DHT22;9202;51.578;7.734;2023-06-14T05:45:13;16.20;99.90
18153;DHT22;9202;51.578;7.734;2023-06-14T05:47:17;16.30;99.90
18153;DHT22;9202;51.578;7.734;2023-06-14T05:49:20;16.30;99.90
18153;DHT22;9202;51.578;7.734;2023-06-14T05:51:22;16.40;99.90
18153;DHT22;9202;51.578;7.734;2023-06-14T05:53:26;16.40;99.90
18153;DHT22;9202;51.578;7.734;2023-06-14T05:55:29;16.40;99.90
18153;DHT22;9202;51.578;7.734;2023-06-14T05:57:31;16.50;99.90
18153;DHT22;9202;51.578;7.734;2023-06-14T05:59:34;16.50;99.90
18153;DHT22;9202;51.578;7.734;2023-06-14T06:01:37;16.50;99.90
18153;DHT22;9202;51.578;7.734;2023-06-14T06:03:41;16.50;99.90
18153;DHT22;9202;51.578;7.734;2023-06-14T06:05:46;16.60;99.90
18153;DHT22;9202;51.578;7.734;2023-06-14T06:07:48;16.70;99.90
18153;DHT22;9202;51.578;7.734;2023-06-14T06:09:51;16.70;99.90
18153;DHT22;9202;51.578;7.734;2023-06-14T06:11:54;16.90;99.90
18153;DHT22;9202;51.578;7.734;2023-06-14T06:13:56;16.90;99.90
18153;DHT22;9202;51.578;7.734;2023-06-14T06:15:59;16.90;99.90
18153;DHT22;9202;51.578;7.734;2023-06-14T06:18:01;16.90;99.90
18153;DHT22;9202;51.578;7.734;2023-06-14T06:20:04;17.00;99.90
18153;DHT22;9202;51.578;7.734;2023-06-14T06:22:09;17.00;99.90
18153;DHT22;9202;51.578;7.734;2023-06-14T06:24:12;17.10;99.90
18153;DHT22;9202;51.578;7.734;2023-06-14T06:26:15;17.20;99.90
18153;DHT22;9202;51.578;7.734;2023-06-14T06:28:17;17.20;99.90
18153;DHT22;9202;51.578;7.734;2023-06-14T06:30:20;17.60;99.90
18153;DHT22;9202;51.578;7.734;2023-06-14T06:32:23;17.30;99.90
18153;DHT22;9202;51.578;7.734;2023-06-14T06:34:25;17.20;99.90
18153;DHT22;9202;51.578;7.734;2023-06-14T06:36:28;17.20;99.90
18153;DHT22;9202;51.578;7.734;2023-06-14T06:38:31;17.30;99.90
18153;DHT22;9202;51.578;7.734;2023-06-14T06:40:34;17.90;99.90
18153;DHT22;9202;51.578;7.734;2023-06-14T06:42:41;17.50;99.90
18153;DHT22;9202;51.578;7.734;2023-06-14T06:44:47;17.60;99.90
18153;DHT22;9202;51.578;7.734;2023-06-14T06:46:50;17.70;99.90
18153;DHT22;9202;51.578;7.734;2023-06-14T06:48:52;17.70;99.90
18153;DHT22;9202;51.578;7.734;2023-06-14T06:50:56;17.70;99.90
18153;DHT22;9202;51.578;7.734;2023-06-14T06:52:59;17.90;99.90
18153;DHT22;9202;51.578;7.734;2023-06-14T06:55:02;18.00;99.90
18153;DHT22;9202;51.578;7.734;2023-06-14T06:57:05;18.00;99.90
18153;DHT22;9202;51.578;7.734;2023-06-14T06:59:08;18.00;99.90
18153;DHT22;9202;51.578;7.734;2023-06-14T07:01:13;18.10;99.90
18153;DHT22;9202;51.578;7.734;2023-06-14T07:03:18;18.10;99.90
18153;DHT22;9202;51.578;7.734;2023-06-14T07:05:20;18.10;99.90
18153;DHT22;9202;51.578;7.734;2023-06-14T07:07:23;18.10;99.90
18153;DHT22;9202;51.578;7.734;2023-06-14T07:09:26;18.20;99.90
18153;DHT22;9202;51.578;7.734;2023-06-14T07:11:29;18.40;99.90
18153;DHT22;9202;51.578;7.734;2023-06-14T07:13:31;18.50;99.90
18153;DHT22;9202;51.578;7.734;2023-06-14T07:15:34;18.60;99.90
18153;DHT22;9202;51.578;7.734;2023-06-14T07:17:36;18.70;99.90
18153;DHT22;9202;51.578;7.734;2023-06-14T07:19:39;18.80;99.90
18153;DHT22;9202;51.578;7.734;2023-06-14T07:21:42;18.80;99.90
18153;DHT22;9202;51.578;7.734;2023-06-14T07:23:45;18.90;99.90
18153;DHT22;9202;51.578;7.734;2023-06-14T07:25:48;18.90;99.90
18153;DHT22;9202;51.578;7.734;2023-06-14T07:27:51;18.80;99.90
18153;DHT22;9202;51.578;7.734;2023-06-14T07:29:53;18.80;99.90
18153;DHT22;9202;51.578;7.734;2023-06-14T07:31:56;18.90;99.90
18153;DHT22;9202;51.578;7.734;2023-06-14T07:33:58;18.80;99.20
18153;DHT22;9202;51.578;7.734;2023-06-14T07:36:01;18.90;99.70
18153;DHT22;9202;51.578;7.734;2023-06-14T07:38:04;18.80;98.60
18153;DHT22;9202;51.578;7.734;2023-06-14T07:40:08;18.80;98.90
18153;DHT22;9202;51.578;7.734;2023-06-14T07:42:12;18.90;99.50
18153;DHT22;9202;51.578;7.734;2023-06-14T07:44:14;19.00;99.90
18153;DHT22;9202;51.578;7.734;2023-06-14T07:46:17;19.10;99.20
18153;DHT22;9202;51.578;7.734;2023-06-14T07:48:20;19.20;98.60
18153;DHT22;9202;51.578;7.734;2023-06-14T07:50:23;19.20;97.00
18153;DHT22;9202;51.578;7.734;2023-06-14T07:52:26;19.10;96.40
18153;DHT22;9202;51.578;7.734;2023-06-14T07:54:28;18.90;96.50
18153;DHT22;9202;51.578;7.734;2023-06-14T07:56:32;18.90;96.80
18153;DHT22;9202;51.578;7.734;2023-06-14T07:58:34;19.00;97.70
18153;DHT22;9202;51.578;7.734;2023-06-14T08:00:37;19.30;97.60
18153;DHT22;9202;51.578;7.734;2023-06-14T08:02:39;19.30;97.50
18153;DHT22;9202;51.578;7.734;2023-06-14T08:04:42;19.40;98.20
18153;DHT22;9202;51.578;7.734;2023-06-14T08:06:45;19.50;97.10
18153;DHT22;9202;51.578;7.734;2023-06-14T08:08:48;19.60;97.50
18153;DHT22;9202;51.578;7.734;2023-06-14T08:10:50;19.50;95.60
18153;DHT22;9202;51.578;7.734;2023-06-14T08:12:53;19.60;95.80
18153;DHT22;9202;51.578;7.734;2023-06-14T08:14:56;19.70;95.40
18153;DHT22;9202;51.578;7.734;2023-06-14T08:17:00;19.60;94.80
18153;DHT22;9202;51.578;7.734;2023-06-14T08:19:03;19.70;96.20
18153;DHT22;9202;51.578;7.734;2023-06-14T08:21:07;19.70;94.80
18153;DHT22;9202;51.578;7.734;2023-06-14T08:23:14;19.90;95.90
18153;DHT22;9202;51.578;7.734;2023-06-14T08:25:20;20.00;96.70
18153;DHT22;9202;51.578;7.734;2023-06-14T08:27:24;20.20;96.30
18153;DHT22;9202;51.578;7.734;2023-06-14T08:29:32;20.30;95.60
18153;DHT22;9202;51.578;7.734;2023-06-14T08:31:41;20.40;94.90
18153;DHT22;9202;51.578;7.734;2023-06-14T08:34:03;20.40;94.80
18153;DHT22;9202;51.578;7.734;2023-06-14T08:36:43;20.60;95.40
18153;DHT22;9202;51.578;7.734;2023-06-14T08:38:58;20.50;95.00
18153;DHT22;9202;51.578;7.734;2023-06-14T08:41:02;20.60;95.20
18153;DHT22;9202;51.578;7.734;2023-06-14T08:43:06;20.60;95.00
18153;DHT22;9202;51.578;7.734;2023-06-14T08:45:09;20.70;93.90
18153;DHT22;9202;51.578;7.734;2023-06-14T08:47:12;20.50;94.40
18153;DHT22;9202;51.578;7.734;2023-06-14T08:49:16;20.40;96.10
18153;DHT22;9202;51.578;7.734;2023-06-14T08:51:19;20.80;96.30
18153;DHT22;9202;51.578;7.734;2023-06-14T08:53:25;20.50;93.20
18153;DHT22;9202;51.578;7.734;2023-06-14T08:55:30;20.50;93.70
18153;DHT22;9202;51.578;7.734;2023-06-14T08:57:36;20.70;94.50
18153;DHT22;9202;51.578;7.734;2023-06-14T08:59:40;20.80;94.70
18153;DHT22;9202;51.578;7.734;2023-06-14T09:01:45;20.70;94.60
18153;DHT22;9202;51.578;7.734;2023-06-14T09:03:52;21.00;96.30
18153;DHT22;9202;51.578;7.734;2023-06-14T09:05:58;21.00;96.00
18153;DHT22;9202;51.578;7.734;2023-06-14T09:08:02;20.90;94.50
18153;DHT22;9202;51.578;7.734;2023-06-14T09:10:08;20.80;94.80
18153;DHT22;9202;51.578;7.734;2023-06-14T09:12:12;21.40;94.30
18153;DHT22;9202;51.578;7.734;2023-06-14T09:14:17;20.30;94.80
18153;DHT22;9202;51.578;7.734;2023-06-14T09:16:20;20.70;95.60
18153;DHT22;9202;51.578;7.734;2023-06-14T09:18:23;20.50;95.10
18153;DHT22;9202;51.578;7.734;2023-06-14T09:20:28;20.80;96.20
18153;DHT22;9202;51.578;7.734;2023-06-14T09:22:32;21.10;96.10
18153;DHT22;9202;51.578;7.734;2023-06-14T09:24:35;21.20;96.50
18153;DHT22;9202;51.578;7.734;2023-06-14T09:26:39;20.90;95.80
18153;DHT22;9202;51.578;7.734;2023-06-14T09:28:43;20.90;95.90
18153;DHT22;9202;51.578;7.734;2023-06-14T09:30:46;21.20;97.70
18153;DHT22;9202;51.578;7.734;2023-06-14T09:32:49;21.40;96.30
18153;DHT22;9202;51.578;7.734;2023-06-14T09:34:53;21.60;96.30
18153;DHT22;9202;51.578;7.734;2023-06-14T09:36:57;21.60;95.50
18153;DHT22;9202;51.578;7.734;2023-06-14T09:39:02;21.50;95.00
18153;DHT22;9202;51.578;7.734;2023-06-14T09:41:07;21.40;94.50
18153;DHT22;9202;51.578;7.734;2023-06-14T09:43:10;21.10;94.80
18153;DHT22;9202;51.578;7.734;2023-06-14T09:45:13;21.10;95.30
18153;DHT22;9202;51.578;7.734;2023-06-14T09:47:18;21.30;96.20
18153;DHT22;9202;51.578;7.734;2023-06-14T09:49:21;21.60;96.90
18153;DHT22;9202;51.578;7.734;2023-06-14T09:51:24;21.80;96.00
18153;DHT22;9202;51.578;7.734;2023-06-14T09:53:26;22.00;95.90
18153;DHT22;9202;51.578;7.734;2023-06-14T09:55:31;22.00;94.50
18153;DHT22;9202;51.578;7.734;2023-06-14T09:57:35;21.60;94.10
18153;DHT22;9202;51.578;7.734;2023-06-14T09:59:39;21.10;94.60
18153;DHT22;9202;51.578;7.734;2023-06-14T10:01:43;21.20;95.10
18153;DHT22;9202;51.578;7.734;2023-06-14T10:03:47;21.30;95.30
18153;DHT22;9202;51.578;7.734;2023-06-14T10:05:54;21.30;95.20
18153;DHT22;9202;51.578;7.734;2023-06-14T10:08:00;21.30;95.00
18153;DHT22;9202;51.578;7.734;2023-06-14T10:10:04;21.70;95.80
18153;DHT22;9202;51.578;7.734;2023-06-14T10:12:08;21.30;95.10
18153;DHT22;9202;51.578;7.734;2023-06-14T10:14:12;21.40;96.20
18153;DHT22;9202;51.578;7.734;2023-06-14T10:16:18;21.50;94.60
18153;DHT22;9202;51.578;7.734;2023-06-14T10:18:23;21.70;96.50
18153;DHT22;9202;51.578;7.734;2023-06-14T10:20:29;21.40;96.00
18153;DHT22;9202;51.578;7.734;2023-06-14T10:22:34;21.60;96.10
18153;DHT22;9202;51.578;7.734;2023-06-14T10:24:39;21.60;95.60
18153;DHT22;9202;51.578;7.734;2023-06-14T10:26:50;21.70;97.10
18153;DHT22;9202;51.578;7.734;2023-06-14T10:28:56;21.90;95.20
18153;DHT22;9202;51.578;7.734;2023-06-14T10:31:03;21.90;95.10
18153;DHT22;9202;51.578;7.734;2023-06-14T10:33:06;21.90;96.30
18153;DHT22;9202;51.578;7.734;2023-06-14T10:35:13;22.20;95.20
18153;DHT22;9202;51.578;7.734;2023-06-14T10:37:14;22.30;96.20
18153;DHT22;9202;51.578;7.734;2023-06-14T10:39:18;22.30;94.70
18153;DHT22;9202;51.578;7.734;2023-06-14T10:41:21;21.90;94.80
18153;DHT22;9202;51.578;7.734;2023-06-14T10:43:24;21.60;94.80
18153;DHT22;9202;51.578;7.734;2023-06-14T10:45:27;21.90;96.10
18153;DHT22;9202;51.578;7.734;2023-06-14T10:47:30;22.10;95.90
18153;DHT22;9202;51.578;7.734;2023-06-14T10:49:37;22.40;95.50
18153;DHT22;9202;51.578;7.734;2023-06-14T10:51:42;22.60;97.70
18153;DHT22;9202;51.578;7.734;2023-06-14T10:53:48;22.50;94.80
18153;DHT22;9202;51.578;7.734;2023-06-14T10:55:51;22.20;95.90
18153;DHT22;9202;51.578;7.734;2023-06-14T10:57:54;22.30;95.20
18153;DHT22;9202;51.578;7.734;2023-06-14T10:59:58;22.30;94.70
18153;DHT22;9202;51.578;7.734;2023-06-14T11:02:06;22.30;94.40
18153;DHT22;9202;51.578;7.734;2023-06-14T11:04:09;22.00;94.10
18153;DHT22;9202;51.578;7.734;2023-06-14T11:06:14;22.20;95.70
18153;DHT22;9202;51.578;7.734;2023-06-14T11:08:25;22.10;94.20
18153;DHT22;9202;51.578;7.734;2023-06-14T11:10:31;22.20;94.50
18153;DHT22;9202;51.578;7.734;2023-06-14T11:12:33;22.50;95.10
18153;DHT22;9202;51.578;7.734;2023-06-14T11:14:37;22.60;95.40
18153;DHT22;9202;51.578;7.734;2023-06-14T11:16:40;22.40;94.70
18153;DHT22;9202;51.578;7.734;2023-06-14T11:18:44;22.20;95.10
18153;DHT22;9202;51.578;7.734;2023-06-14T11:20:47;22.10;94.80
18153;DHT22;9202;51.578;7.734;2023-06-14T11:22:50;22.50;95.90
18153;DHT22;9202;51.578;7.734;2023-06-14T11:24:52;22.60;95.10
18153;DHT22;9202;51.578;7.734;2023-06-14T11:26:55;22.70;94.80
18153;DHT22;9202;51.578;7.734;2023-06-14T11:28:59;22.70;94.00
18153;DHT22;9202;51.578;7.734;2023-06-14T11:31:03;22.70;94.50
18153;DHT22;9202;51.578;7.734;2023-06-14T11:33:09;22.90;95.00
18153;DHT22;9202;51.578;7.734;2023-06-14T11:35:13;22.80;94.40
18153;DHT22;9202;51.578;7.734;2023-06-14T11:37:16;23.00;94.40
18153;DHT22;9202;51.578;7.734;2023-06-14T11:39:23;22.70;94.00
18153;DHT22;9202;51.578;7.734;2023-06-14T11:41:24;23.00;95.30
18153;DHT22;9202;51.578;7.734;2023-06-14T11:43:27;23.00;94.10
18153;DHT22;9202;51.578;7.734;2023-06-14T11:45:31;23.10;93.70
18153;DHT22;9202;51.578;7.734;2023-06-14T11:47:33;23.00;93.80
18153;DHT22;9202;51.578;7.734;2023-06-14T11:49:37;22.90;93.20
18153;DHT22;9202;51.578;7.734;2023-06-14T11:51:40;22.70;94.70
18153;DHT22;9202;51.578;7.734;2023-06-14T11:53:45;22.80;95.10
18153;DHT22;9202;51.578;7.734;2023-06-14T11:55:48;22.90;94.00
18153;DHT22;9202;51.578;7.734;2023-06-14T11:57:50;23.00;95.00
18153;DHT22;9202;51.578;7.734;2023-06-14T11:59:54;23.10;93.80
18153;DHT22;9202;51.578;7.734;2023-06-14T12:01:57;23.30;94.60
18153;DHT22;9202;51.578;7.734;2023-06-14T12:03:59;23.10;95.30
18153;DHT22;9202;51.578;7.734;2023-06-14T12:06:04;23.10;94.40
18153;DHT22;9202;51.578;7.734;2023-06-14T12:08:07;22.90;93.80
18153;DHT22;9202;51.578;7.734;2023-06-14T12:10:10;23.10;95.90
18153;DHT22;9202;51.578;7.734;2023-06-14T12:12:12;23.30;93.20
18153;DHT22;9202;51.578;7.734;2023-06-14T12:14:15;23.00;93.30
18153;DHT22;9202;51.578;7.734;2023-06-14T12:16:18;22.90;93.50
18153;DHT22;9202;51.578;7.734;2023-06-14T12:18:21;23.00;94.30
18153;DHT22;9202;51.578;7.734;2023-06-14T12:20:29;23.10;94.50
18153;DHT22;9202;51.578;7.734;2023-06-14T12:22:33;22.90;93.70
18153;DHT22;9202;51.578;7.734;2023-06-14T12:24:36;23.20;93.90
18153;DHT22;9202;51.578;7.734;2023-06-14T12:26:38;23.40;94.20
18153;DHT22;9202;51.578;7.734;2023-06-14T12:28:42;23.40;95.80
18153;DHT22;9202;51.578;7.734;2023-06-14T12:30:45;23.40;95.00
18153;DHT22;9202;51.578;7.734;2023-06-14T12:32:49;23.20;92.70
18153;DHT22;9202;51.578;7.734;2023-06-14T12:34:53;23.20;92.40
18153;DHT22;9202;51.578;7.734;2023-06-14T12:36:56;23.40;92.80
18153;DHT22;9202;51.578;7.734;2023-06-14T12:38:58;23.20;92.90
18153;DHT22;9202;51.578;7.734;2023-06-14T12:41:02;23.30;93.60
18153;DHT22;9202;51.578;7.734;2023-06-14T12:43:04;23.30;92.60
18153;DHT22;9202;51.578;7.734;2023-06-14T12:45:08;23.30;92.70
18153;DHT22;9202;51.578;7.734;2023-06-14T12:47:11;23.30;94.40
18153;DHT22;9202;51.578;7.734;2023-06-14T12:49:14;23.50;94.20
18153;DHT22;9202;51.578;7.734;2023-06-14T12:51:17;23.30;93.40
18153;DHT22;9202;51.578;7.734;2023-06-14T12:53:19;23.20;92.60
18153;DHT22;9202;51.578;7.734;2023-06-14T12:55:23;23.40;93.40
18153;DHT22;9202;51.578;7.734;2023-06-14T12:57:26;23.30;92.20
18153;DHT22;9202;51.578;7.734;2023-06-14T12:59:29;23.60;93.50
18153;DHT22;9202;51.578;7.734;2023-06-14T13:01:34;23.40;92.80
18153;DHT22;9202;51.578;7.734;2023-06-14T13:03:36;23.20;92.10
18153;DHT22;9202;51.578;7.734;2023-06-14T13:05:39;23.40;91.80
18153;DHT22;9202;51.578;7.734;2023-06-14T13:07:43;23.50;93.30
18153;DHT22;9202;51.578;7.734;2023-06-14T13:09:46;23.70;94.90
18153;DHT22;9202;51.578;7.734;2023-06-14T13:11:49;23.70;91.80
18153;DHT22;9202;51.578;7.734;2023-06-14T13:13:51;23.70;91.30